Linus P — V7RA8 — position and weather

sailwx.info

Track history (hours):
 
Tides and Currents Weather Stations Pressure Air Temp Water Temp Dewpoint Dewpoint Depression Visibility Wind Speed Wind Dir Waves Ship Positions

Linus P

Last reported at 2018-Jun-15 18:36 UTC. Time now 2018-Jun-25 15:46 UTC.
Position N 01°21' E 103°18'.
Warning: this ship's position is 9 days out of date.

Length 169 m; draft 8.4 m.

Type: Tanker. MMSI: 538006808.

Date/timePositionNaut miles runAvg speedWind from/ knotsBaromVisibWave heightAir tempDewpointWater temp
2018-Jun-15 18:36N 01°21' E 103°18'212.4
2018-Jun-15 18:25N 01°19' E 103°20'512.4
2018-Jun-15 17:59N 01°16' E 103°24'712.7
2018-Jun-15 17:28N 01°14' E 103°30'612.6
2018-Jun-15 17:00N 01°12' E 103°36'5 9.7
2018-Jun-15 16:30N 01°11' E 103°41'3 5.2
2018-Jun-15 16:00N 01°10' E 103°43'0 0.2
2018-Jun-15 15:30N 01°10' E 103°43'0 0.0
2018-Jun-15 14:59N 01°10' E 103°43'0 0.1
2018-Jun-15 14:29N 01°10' E 103°43'0 0.2
2018-Jun-15 14:00N 01°10' E 103°43'0 0.1
2018-Jun-15 13:29N 01°10' E 103°43'0 0.3
2018-Jun-15 13:00N 01°10' E 103°43'0 0.0
2018-Jun-15 12:26N 01°10' E 103°43'0 0.2
2018-Jun-15 12:00N 01°10' E 103°43'0 0.1
2018-Jun-15 11:30N 01°10' E 103°43'0 0.0
2018-Jun-15 11:00N 01°10' E 103°43'0 0.1
2018-Jun-15 10:30N 01°10' E 103°43'0 0.1
2018-Jun-15 09:54N 01°10' E 103°43'0 0.0
2018-Jun-15 09:30N 01°10' E 103°43'0 0.1
2018-Jun-15 08:56N 01°10' E 103°43'0 0.0
2018-Jun-15 08:30N 01°10' E 103°43'0 0.0
2018-Jun-15 07:59N 01°10' E 103°43'0 0.2
2018-Jun-15 07:24N 01°10' E 103°43'0 0.2
2018-Jun-15 06:57N 01°10' E 103°43'0 0.0
2018-Jun-15 06:21N 01°10' E 103°43'0 0.2
2018-Jun-15 06:00N 01°10' E 103°43'1 2.3
2018-Jun-15 05:30N 01°09' E 103°44'3 6.0
2018-Jun-15 05:00N 01°10' E 103°47'5 9.1
2018-Jun-15 04:30N 01°12' E 103°51'714.3
2018-Jun-15 04:01N 01°15' E 103°57'712.9
2018-Jun-15 03:30N 01°16' E 104°04'5 9.5
2018-Jun-15 03:00N 01°17' E 104°08'4 8.2
2018-Jun-15 02:29N 01°17' E 104°13'4 8.5
2018-Jun-15 01:59N 01°18' E 104°17'3 5.5
2018-Jun-15 01:30N 01°19' E 104°19'4 7.7
2018-Jun-15 00:59N 01°21' E 104°22'711.2
2018-Jun-15 00:22N 01°26' E 104°28'410.9
2018-Jun-15 00:00N 01°28' E 104°31'  
Track history (hours):
 
Tides and Currents Weather Stations Pressure Air Temp Water Temp Dewpoint Dewpoint Depression Visibility Wind Speed Wind Dir Waves Ship Positions

Linus P

Last reported at 2018-Jun-15 18:36 UTC. Time now 2018-Jun-25 15:46 UTC.
Position N 01°21' E 103°18'.
Warning: this ship's position is 9 days out of date.

Length 169 m; draft 8.4 m.

Type: Tanker. MMSI: 538006808.

Date/timePositionNaut miles runAvg speedWind from/ knotsBaromVisibWave heightAir tempDewpointWater temp
2018-Jun-15 18:36N 01°21' E 103°18'212.4
2018-Jun-15 18:25N 01°19' E 103°20'512.4
2018-Jun-15 17:59N 01°16' E 103°24'712.7
2018-Jun-15 17:28N 01°14' E 103°30'612.6
2018-Jun-15 17:00N 01°12' E 103°36'5 9.7
2018-Jun-15 16:30N 01°11' E 103°41'3 5.2
2018-Jun-15 16:00N 01°10' E 103°43'0 0.2
2018-Jun-15 15:30N 01°10' E 103°43'0 0.0
2018-Jun-15 14:59N 01°10' E 103°43'0 0.1
2018-Jun-15 14:29N 01°10' E 103°43'0 0.2
2018-Jun-15 14:00N 01°10' E 103°43'0 0.1
2018-Jun-15 13:29N 01°10' E 103°43'0 0.3
2018-Jun-15 13:00N 01°10' E 103°43'0 0.0
2018-Jun-15 12:26N 01°10' E 103°43'0 0.2
2018-Jun-15 12:00N 01°10' E 103°43'0 0.1
2018-Jun-15 11:30N 01°10' E 103°43'0 0.0
2018-Jun-15 11:00N 01°10' E 103°43'0 0.1
2018-Jun-15 10:30N 01°10' E 103°43'0 0.1
2018-Jun-15 09:54N 01°10' E 103°43'0 0.0
2018-Jun-15 09:30N 01°10' E 103°43'0 0.1
2018-Jun-15 08:56N 01°10' E 103°43'0 0.0
2018-Jun-15 08:30N 01°10' E 103°43'0 0.0
2018-Jun-15 07:59N 01°10' E 103°43'0 0.2
2018-Jun-15 07:24N 01°10' E 103°43'0 0.2
2018-Jun-15 06:57N 01°10' E 103°43'0 0.0
2018-Jun-15 06:21N 01°10' E 103°43'0 0.2
2018-Jun-15 06:00N 01°10' E 103°43'1 2.3
2018-Jun-15 05:30N 01°09' E 103°44'3 6.0
2018-Jun-15 05:00N 01°10' E 103°47'5 9.1
2018-Jun-15 04:30N 01°12' E 103°51'714.3
2018-Jun-15 04:01N 01°15' E 103°57'712.9
2018-Jun-15 03:30N 01°16' E 104°04'5 9.5
2018-Jun-15 03:00N 01°17' E 104°08'4 8.2
2018-Jun-15 02:29N 01°17' E 104°13'4 8.5
2018-Jun-15 01:59N 01°18' E 104°17'3 5.5
2018-Jun-15 01:30N 01°19' E 104°19'4 7.7
2018-Jun-15 00:59N 01°21' E 104°22'711.2
2018-Jun-15 00:22N 01°26' E 104°28'410.9
2018-Jun-15 00:00N 01°28' E 104°31'  

Dump ship's entire track history